Time;durP1;ratioP1;P1;durP2;ratioP2;P2;SDS_P1;SDS_P2;PMS_P1;PMS_P2;Temp;Humidity;BMP_temperature;BMP_pressure;BME280_temperature;BME280_humidity;BME280_pressure;Samples;Min_cycle;Max_cycle;Signal;HPM_P1;HPM_P2
2022/03/30 00:00:10;;;;;;;;;;;;;;;;;;5006972;28;19923;-63
2022/03/30 00:02:36;;;;;;;;;;;;;;;;;;5005256;28;20016;-64
2022/03/30 00:05:02;;;;;;;;;;;;;;;;;;5003566;28;20389;-65
2022/03/30 00:07:31;;;;;;;;;;;;;;;;;;5010099;28;19931;-64
2022/03/30 00:09:58;;;;;;;;;;;;;;;;;;5006741;28;19948;-65
2022/03/30 00:12:24;;;;;;;;;;;;;;;;;;5012840;28;19917;-63
2022/03/30 00:14:51;;;;;;;;;;;;;;;;;;5018183;28;19970;-64
2022/03/30 00:17:17;;;;;;;;;;;;;;;;;;5010159;28;19917;-64
2022/03/30 00:19:43;;;;;;;;;;;;;;;;;;5006746;28;20450;-64
2022/03/30 00:22:09;;;;;;;;;;;;;;;;;;5006658;28;20036;-64
2022/03/30 00:24:35;;;;;;;;;;;;;;;;;;5007557;28;19917;-64
2022/03/30 00:27:02;;;;;;;;;;;;;;;;;;5002047;28;19936;-64
2022/03/30 00:29:28;;;;;;;;;;;;;;;;;;5003718;28;20032;-64
2022/03/30 00:31:54;;;;;;;;;;;;;;;;;;5005110;28;20317;-64
2022/03/30 00:34:20;;;;;;;;;;;;;;;;;;5007807;28;19967;-64
2022/03/30 00:36:46;;;;;;;;;;;;;;;;;;5006485;28;20367;-64
2022/03/30 00:39:12;;;;;;;;;;;;;;;;;;5001017;28;19931;-64
2022/03/30 00:41:38;;;;;;;;;;;;;;;;;;5015179;28;19913;-64
2022/03/30 00:44:04;;;;;;;;;;;;;;;;;;5000609;28;20391;-64
2022/03/30 00:46:30;;;;;;;;;;;;;;;;;;5008345;28;19960;-64
2022/03/30 00:48:56;;;;;;;;;;;;;;;;;;5008834;28;19940;-64
2022/03/30 00:51:22;;;;;;;;;;;;;;;;;;5006994;28;19987;-64
2022/03/30 00:53:48;;;;;;;;;;;;;;;;;;5006461;28;20052;-64
2022/03/30 00:56:14;;;;;;;;;;;;;;;;;;5006537;28;20371;-64
2022/03/30 00:58:40;;;;;;;;;;;;;;;;;;5008224;28;20081;-64
2022/03/30 01:01:07;;;;;;;;;;;;;;;;;;5003253;28;19917;-64
2022/03/30 01:03:33;;;;;;;;;;;;;;;;;;5003902;28;19978;-64
2022/03/30 01:05:59;;;;;;;;;;;;;;;;;;5001910;28;19960;-64
2022/03/30 01:08:25;;;;;;;;;;;;;;;;;;5010430;28;20059;-64
2022/03/30 01:10:51;;;;;;;;;;;;;;;;;;5009953;28;20393;-67
2022/03/30 01:13:18;;;;;;;;;;;;;;;;;;4929427;28;2205596;-64
2022/03/30 01:15:44;;;;;;;;;;;;;;;;;;5014092;28;20016;-64
2022/03/30 01:18:10;;;;;;;;;;;;;;;;;;5002472;28;20401;-64
2022/03/30 01:20:37;;;;;;;;;;;;;;;;;;5011149;28;19929;-64
2022/03/30 01:23:03;;;;;;;;;;;;;;;;;;5009782;28;20382;-64
2022/03/30 01:25:29;;;;;;;;;;;;;;;;;;5007195;28;19924;-64
2022/03/30 01:27:55;;;;;;;;;;;;;;;;;;5008028;28;19921;-64
2022/03/30 01:33:06;;;;;;;;;;;;;;;;;;5006372;28;19923;-64
2022/03/30 01:35:32;;;;;;;;;;;;;;;;;;5010470;28;20505;-64
2022/03/30 01:37:58;;;;;;;;;;;;;;;;;;5008323;28;19917;-64
2022/03/30 01:40:24;;;;;;;;;;;;;;;;;;5017070;28;20385;-64
2022/03/30 01:42:50;;;;;;;;;;;;;;;;;;5013348;28;20354;-64
2022/03/30 01:45:16;;;;;;;;;;;;;;;;;;4991318;28;20000;-64
2022/03/30 01:47:42;;;;;;;;;;;;;;;;;;5010159;28;20361;-64
2022/03/30 01:50:10;;;;;;;;;;;;;;;;;;5009828;28;19921;-64
2022/03/30 01:52:36;;;;;;;;;;;;;;;;;;5007378;28;19917;-64
2022/03/30 01:55:02;;;;;;;;;;;;;;;;;;5008742;28;19917;-64
2022/03/30 01:57:28;;;;;;;;;;;;;;;;;;5011983;28;19917;-64
2022/03/30 01:59:54;;;;;;;;;;;;;;;;;;5005336;28;19971;-64
2022/03/30 02:02:21;;;;;;;;;;;;;;;;;;5013863;28;20320;-64
2022/03/30 02:04:47;;;;;;;;;;;;;;;;;;5009465;28;20386;-64
2022/03/30 02:07:13;;;;;;;;;;;;;;;;;;5004937;28;19921;-64
2022/03/30 02:09:39;;;;;;;;;;;;;;;;;;5010079;28;19923;-64
2022/03/30 02:12:05;;;;;;;;;;;;;;;;;;5002979;28;19917;-64
2022/03/30 02:14:31;;;;;;;;;;;;;;;;;;5010020;28;20587;-64
2022/03/30 02:16:57;;;;;;;;;;;;;;;;;;5006509;28;20008;-65
2022/03/30 02:19:23;;;;;;;;;;;;;;;;;;4999628;28;19982;-64
2022/03/30 02:21:49;;;;;;;;;;;;;;;;;;5011604;28;20016;-64
2022/03/30 02:24:15;;;;;;;;;;;;;;;;;;5007724;28;20366;-64
2022/03/30 02:26:41;;;;;;;;;;;;;;;;;;5009615;28;19921;-64
2022/03/30 02:29:07;;;;;;;;;;;;;;;;;;5006796;28;19939;-64
2022/03/30 02:31:33;;;;;;;;;;;;;;;;;;5011160;28;19917;-64
2022/03/30 02:34:00;;;;;;;;;;;;;;;;;;5007936;28;20405;-64
2022/03/30 02:36:26;;;;;;;;;;;;;;;;;;5010400;28;19933;-64
2022/03/30 02:38:51;;;;;;;;;;;;;;;;;;5010822;28;19927;-64
2022/03/30 02:41:18;;;;;;;;;;;;;;;;;;5005844;28;20503;-64
2022/03/30 02:43:44;;;;;;;;;;;;;;;;;;5012628;28;20467;-64
2022/03/30 02:46:10;;;;;;;;;;;;;;;;;;5014389;28;19928;-64
2022/03/30 02:48:37;;;;;;;;;;;;;;;;;;5010980;28;19920;-63
2022/03/30 02:51:03;;;;;;;;;;;;;;;;;;4992077;28;19927;-63
2022/03/30 02:53:29;;;;;;;;;;;;;;;;;;5013427;28;19928;-63
2022/03/30 02:55:56;;;;;;;;;;;;;;;;;;5007971;28;20006;-63
2022/03/30 02:58:22;;;;;;;;;;;;;;;;;;5009282;28;19917;-64
2022/03/30 03:00:48;;;;;;;;;;;;;;;;;;4999269;28;19956;-63
2022/03/30 03:03:14;;;;;;;;;;;;;;;;;;5005598;28;20399;-63
2022/03/30 03:05:42;;;;;;;;;;;;;;;;;;5016674;28;20001;-63
2022/03/30 03:08:08;;;;;;;;;;;;;;;;;;5005678;28;19995;-63
2022/03/30 03:10:34;;;;;;;;;;;;;;;;;;5013351;28;20542;-63
2022/03/30 03:13:03;;;;;;;;;;;;;;;;;;5010980;28;19921;-63
2022/03/30 03:15:29;;;;;;;;;;;;;;;;;;5014208;28;19920;-63
2022/03/30 03:17:55;;;;;;;;;;;;;;;;;;5009991;28;20061;-63
2022/03/30 03:20:21;;;;;;;;;;;;;;;;;;5010240;28;20335;-63
2022/03/30 03:22:47;;;;;;;;;;;;;;;;;;5008079;28;20353;-63
2022/03/30 03:25:14;;;;;;;;;;;;;;;;;;5014293;28;20319;-64
2022/03/30 03:27:40;;;;;;;;;;;;;;;;;;5015203;28;20007;-64
2022/03/30 03:30:06;;;;;;;;;;;;;;;;;;5009549;28;19923;-64
2022/03/30 03:32:32;;;;;;;;;;;;;;;;;;5012485;28;19921;-64
2022/03/30 03:34:58;;;;;;;;;;;;;;;;;;5004302;28;19917;-64
2022/03/30 03:37:24;;;;;;;;;;;;;;;;;;5004386;28;19921;-64
2022/03/30 03:39:50;;;;;;;;;;;;;;;;;;5011338;28;19917;-63
2022/03/30 03:42:16;;;;;;;;;;;;;;;;;;5011460;28;19987;-63
2022/03/30 03:44:42;;;;;;;;;;;;;;;;;;5012468;28;19917;-63
2022/03/30 03:47:09;;;;;;;;;;;;;;;;;;5009737;28;19998;-63
2022/03/30 03:49:35;;;;;;;;;;;;;;;;;;4998993;28;19970;-63
2022/03/30 03:52:01;;;;;;;;;;;;;;;;;;5008474;28;20607;-63
2022/03/30 03:54:27;;;;;;;;;;;;;;;;;;5015917;28;19948;-63
2022/03/30 03:56:53;;;;;;;;;;;;;;;;;;5013342;28;20047;-64
2022/03/30 03:59:19;;;;;;;;;;;;;;;;;;5002632;28;19917;-64
2022/03/30 04:01:45;;;;;;;;;;;;;;;;;;5010948;28;19916;-64
2022/03/30 04:04:11;;;;;;;;;;;;;;;;;;5007323;28;20654;-64
2022/03/30 04:06:37;;;;;;;;;;;;;;;;;;5008736;28;20263;-64
2022/03/30 04:09:03;;;;;;;;;;;;;;;;;;5007474;28;19946;-64
2022/03/30 04:11:29;;;;;;;;;;;;;;;;;;5014468;28;19920;-64
2022/03/30 04:13:55;;;;;;;;;;;;;;;;;;5009032;28;19925;-64
2022/03/30 04:16:21;;;;;;;;;;;;;;;;;;5014314;28;20263;-64
2022/03/30 04:18:47;;;;;;;;;;;;;;;;;;5001136;28;19917;-64
2022/03/30 04:21:13;;;;;;;;;;;;;;;;;;5008190;28;19936;-64
2022/03/30 04:23:39;;;;;;;;;;;;;;;;;;5011831;28;20168;-64
2022/03/30 04:26:05;;;;;;;;;;;;;;;;;;5010878;28;19921;-64
2022/03/30 04:28:31;;;;;;;;;;;;;;;;;;5011531;28;19956;-64
2022/03/30 04:30:56;;;;;;;;;;;;;;;;;;5010469;28;19925;-64
2022/03/30 04:33:22;;;;;;;;;;;;;;;;;;5016308;28;19999;-65
2022/03/30 04:35:48;;;;;;;;;;;;;;;;;;5008272;28;19917;-62
2022/03/30 04:38:14;;;;;;;;;;;;;;;;;;5008607;28;20003;-63
2022/03/30 04:40:40;;;;;;;;;;;;;;;;;;5011296;28;19921;-63
2022/03/30 04:43:06;;;;;;;;;;;;;;;;;;5007464;28;20263;-64
2022/03/30 04:45:32;;;;;;;;;;;;;;;;;;5013057;28;20593;-64
2022/03/30 04:47:58;;;;;;;;;;;;;;;;;;5009786;28;20612;-63
2022/03/30 04:50:24;;;;;;;;;;;;;;;;;;5010847;28;19921;-63
2022/03/30 04:52:51;;;;;;;;;;;;;;;;;;5010240;28;19917;-64
2022/03/30 04:55:19;;;;;;;;;;;;;;;;;;5015576;28;20457;-64
2022/03/30 04:57:45;;;;;;;;;;;;;;;;;;5015813;28;20327;-64
2022/03/30 05:00:11;;;;;;;;;;;;;;;;;;5007165;28;19917;-64
2022/03/30 05:02:37;;;;;;;;;;;;;;;;;;5011092;28;20027;-64
2022/03/30 05:05:03;;;;;;;;;;;;;;;;;;5008395;28;19917;-64
2022/03/30 05:07:29;;;;;;;;;;;;;;;;;;4996709;28;19920;-64
2022/03/30 05:09:55;;;;;;;;;;;;;;;;;;5008429;28;19917;-64
2022/03/30 05:12:21;;;;;;;;;;;;;;;;;;5014953;28;20539;-64
2022/03/30 05:14:47;;;;;;;;;;;;;;;;;;4994587;28;19932;-64
2022/03/30 05:17:13;;;;;;;;;;;;;;;;;;4992443;28;19993;-64
2022/03/30 05:19:39;;;;;;;;;;;;;;;;;;4993538;28;19922;-64
2022/03/30 05:22:05;;;;;;;;;;;;;;;;;;4984118;28;20441;-64
2022/03/30 05:24:31;;;;;;;;;;;;;;;;;;4988459;28;19917;-63
2022/03/30 05:26:57;;;;;;;;;;;;;;;;;;4987406;28;19936;-62
2022/03/30 05:29:23;;;;;;;;;;;;;;;;;;4993760;28;20204;-63
2022/03/30 05:31:49;;;;;;;;;;;;;;;;;;4988889;28;20379;-62
2022/03/30 05:34:15;;;;;;;;;;;;;;;;;;4984296;28;19917;-64
2022/03/30 05:36:41;;;;;;;;;;;;;;;;;;4993480;28;19917;-62
2022/03/30 05:39:07;;;;;;;;;;;;;;;;;;4992129;28;20343;-62
2022/03/30 05:41:33;;;;;;;;;;;;;;;;;;4988922;28;19928;-64
2022/03/30 05:43:59;;;;;;;;;;;;;;;;;;4992575;28;19919;-63
2022/03/30 05:46:25;;;;;;;;;;;;;;;;;;4990454;28;19931;-63
2022/03/30 05:48:51;;;;;;;;;;;;;;;;;;4991760;28;19917;-64
2022/03/30 05:51:17;;;;;;;;;;;;;;;;;;4993303;28;20244;-63
2022/03/30 05:53:43;;;;;;;;;;;;;;;;;;4989873;28;19945;-64
2022/03/30 05:56:09;;;;;;;;;;;;;;;;;;4990357;28;20434;-64
2022/03/30 05:58:35;;;;;;;;;;;;;;;;;;4998514;28;19924;-64
2022/03/30 06:01:01;;;;;;;;;;;;;;;;;;4992098;28;19921;-63
2022/03/30 06:03:27;;;;;;;;;;;;;;;;;;4996190;28;19917;-64
2022/03/30 06:05:53;;;;;;;;;;;;;;;;;;4994077;28;20501;-64
2022/03/30 06:08:19;;;;;;;;;;;;;;;;;;5004927;28;19921;-63
2022/03/30 06:10:45;;;;;;;;;;;;;;;;;;4993807;28;19917;-63
2022/03/30 06:13:11;;;;;;;;;;;;;;;;;;4994378;28;23178;-63
2022/03/30 06:15:37;;;;;;;;;;;;;;;;;;5016012;28;19963;-65
2022/03/30 06:18:05;;;;;;;;;;;;;;;;;;5012864;28;19916;-63
2022/03/30 06:20:31;;;;;;;;;;;;;;;;;;4999703;28;19923;-63
2022/03/30 06:22:57;;;;;;;;;;;;;;;;;;5013045;28;19916;-63
2022/03/30 06:25:24;;;;;;;;;;;;;;;;;;5015475;28;19917;-63
2022/03/30 06:27:50;;;;;;;;;;;;;;;;;;5018911;28;19921;-64
2022/03/30 06:30:16;;;;;;;;;;;;;;;;;;4998253;28;19994;-64
2022/03/30 06:32:42;;;;;;;;;;;;;;;;;;5000342;28;20767;-64
2022/03/30 06:35:08;;;;;;;;;;;;;;;;;;4995543;28;19931;-63
2022/03/30 06:37:34;;;;;;;;;;;;;;;;;;5018824;28;19924;-62
2022/03/30 06:40:00;;;;;;;;;;;;;;;;;;5018696;28;21059;-63
2022/03/30 06:42:26;;;;;;;;;;;;;;;;;;5021202;28;19956;-62
2022/03/30 06:44:52;;;;;;;;;;;;;;;;;;5014919;28;19917;-63
2022/03/30 06:47:18;;;;;;;;;;;;;;;;;;5007132;28;19921;-63
2022/03/30 06:49:44;;;;;;;;;;;;;;;;;;5022810;28;19928;-64
2022/03/30 06:52:10;;;;;;;;;;;;;;;;;;5013672;28;20493;-63
2022/03/30 06:54:36;;;;;;;;;;;;;;;;;;5021457;28;19916;-63
2022/03/30 06:57:02;;;;;;;;;;;;;;;;;;5017012;28;20509;-63
2022/03/30 06:59:28;;;;;;;;;;;;;;;;;;5020613;28;19924;-63
2022/03/30 07:01:55;;;;;;;;;;;;;;;;;;5017634;28;19927;-63
2022/03/30 07:04:21;;;;;;;;;;;;;;;;;;5001793;28;19978;-63
2022/03/30 07:12:17;;;;;;;;;;;;;;;;;;5016003;28;19924;-64
2022/03/30 07:14:43;;;;;;;;;;;;;;;;;;5023100;28;19924;-63
2022/03/30 07:17:08;;;;;;;;;;;;;;;;;;5013683;28;19976;-63
2022/03/30 07:19:35;;;;;;;;;;;;;;;;;;5021311;28;19921;-63
2022/03/30 07:22:01;;;;;;;;;;;;;;;;;;5018036;28;20297;-63
2022/03/30 07:24:27;;;;;;;;;;;;;;;;;;5020134;28;20036;-63
2022/03/30 07:26:53;;;;;;;;;;;;;;;;;;5001590;28;19928;-62
2022/03/30 07:29:19;;;;;;;;;;;;;;;;;;5022454;28;19916;-63
2022/03/30 07:31:45;;;;;;;;;;;;;;;;;;5021483;28;20351;-65
2022/03/30 07:34:11;;;;;;;;;;;;;;;;;;5016187;28;20050;-63
2022/03/30 07:36:37;;;;;;;;;;;;;;;;;;5003543;28;20444;-63
2022/03/30 07:39:03;;;;;;;;;;;;;;;;;;4996239;28;19937;-63
2022/03/30 07:41:29;;;;;;;;;;;;;;;;;;5019526;28;19921;-63
2022/03/30 07:43:55;;;;;;;;;;;;;;;;;;5000952;28;19921;-63
2022/03/30 07:46:21;;;;;;;;;;;;;;;;;;5014388;28;19920;-63
2022/03/30 07:48:46;;;;;;;;;;;;;;;;;;5020146;28;20416;-64
2022/03/30 07:51:12;;;;;;;;;;;;;;;;;;5002576;28;20331;-64
2022/03/30 07:53:38;;;;;;;;;;;;;;;;;;4996142;28;20398;-64
2022/03/30 07:56:04;;;;;;;;;;;;;;;;;;5015132;28;19986;-64
2022/03/30 07:58:30;;;;;;;;;;;;;;;;;;5014376;28;19920;-64
2022/03/30 08:00:56;;;;;;;;;;;;;;;;;;4998671;28;20328;-64
2022/03/30 08:03:22;;;;;;;;;;;;;;;;;;5021943;28;19916;-64
2022/03/30 08:05:48;;;;;;;;;;;;;;;;;;5018178;28;19939;-64
2022/03/30 08:08:14;;;;;;;;;;;;;;;;;;5014474;28;20290;-65
2022/03/30 08:10:40;;;;;;;;;;;;;;;;;;5018192;28;19923;-64
2022/03/30 08:13:06;;;;;;;;;;;;;;;;;;5013615;28;20353;-64
2022/03/30 08:15:32;;;;;;;;;;;;;;;;;;5017640;28;19917;-64
2022/03/30 08:17:58;;;;;;;;;;;;;;;;;;5014222;28;19993;-65
2022/03/30 08:23:09;;;;;;;;;;;;;;;;;;5015545;28;19939;-65
2022/03/30 08:25:35;;;;;;;;;;;;;;;;;;5017506;28;19913;-63
2022/03/30 08:28:02;;;;;;;;;;;;;;;;;;5016931;28;19982;-63
2022/03/30 08:30:28;;;;;;;;;;;;;;;;;;4993814;28;19988;-63
2022/03/30 08:32:54;;;;;;;;;;;;;;;;;;4983303;28;20520;-63
2022/03/30 08:35:21;;;;;;;;;;;;;;;;;;5007642;28;20425;-63
2022/03/30 08:37:47;;;;;;;;;;;;;;;;;;5013784;28;19967;-63
2022/03/30 08:40:13;;;;;;;;;;;;;;;;;;4995471;28;20579;-64
2022/03/30 08:42:40;;;;;;;;;;;;;;;;;;5016277;28;20048;-64
2022/03/30 08:45:06;;;;;;;;;;;;;;;;;;5013555;28;19925;-64
2022/03/30 08:47:32;;;;;;;;;;;;;;;;;;5014400;28;19967;-64
2022/03/30 08:49:58;;;;;;;;;;;;;;;;;;5014881;28;20039;-64
2022/03/30 08:52:24;;;;;;;;;;;;;;;;;;5016644;28;20230;-64
2022/03/30 08:54:51;;;;;;;;;;;;;;;;;;5018838;28;20442;-64
2022/03/30 08:57:17;;;;;;;;;;;;;;;;;;5015474;28;19932;-64
2022/03/30 08:59:43;;;;;;;;;;;;;;;;;;5015218;28;19917;-64
2022/03/30 09:02:09;;;;;;;;;;;;;;;;;;5008256;28;20277;-65
2022/03/30 09:04:35;;;;;;;;;;;;;;;;;;5016408;28;20481;-64
2022/03/30 09:07:01;;;;;;;;;;;;;;;;;;5011702;28;19928;-63
2022/03/30 09:09:26;;;;;;;;;;;;;;;;;;5015197;28;19920;-64
2022/03/30 09:11:53;;;;;;;;;;;;;;;;;;5010848;28;19939;-66
2022/03/30 09:14:19;;;;;;;;;;;;;;;;;;5009121;28;20248;-68
2022/03/30 09:16:45;;;;;;;;;;;;;;;;;;5013818;28;19916;-69
2022/03/30 09:19:11;;;;;;;;;;;;;;;;;;5007630;28;19917;-68
2022/03/30 09:21:37;;;;;;;;;;;;;;;;;;5013573;28;19927;-66
2022/03/30 09:24:03;;;;;;;;;;;;;;;;;;4992009;28;20031;-67
2022/03/30 09:26:29;;;;;;;;;;;;;;;;;;5011955;28;19976;-67
2022/03/30 09:28:55;;;;;;;;;;;;;;;;;;5009029;28;19924;-67
2022/03/30 09:31:21;;;;;;;;;;;;;;;;;;4995838;28;19982;-68
2022/03/30 09:33:47;;;;;;;;;;;;;;;;;;5013397;28;20535;-68
2022/03/30 09:36:13;;;;;;;;;;;;;;;;;;5012584;28;19921;-67
2022/03/30 09:38:39;;;;;;;;;;;;;;;;;;5015685;28;20284;-67
2022/03/30 09:41:05;;;;;;;;;;;;;;;;;;5013769;28;20016;-68
2022/03/30 09:43:31;;;;;;;;;;;;;;;;;;5015406;28;19924;-67
2022/03/30 09:45:58;;;;;;;;;;;;;;;;;;5010901;28;19917;-67
2022/03/30 09:48:24;;;;;;;;;;;;;;;;;;4998186;28;20011;-67
2022/03/30 09:50:50;;;;;;;;;;;;;;;;;;5017484;28;19947;-67
2022/03/30 09:53:16;;;;;;;;;;;;;;;;;;5008169;28;19956;-67
2022/03/30 09:55:42;;;;;;;;;;;;;;;;;;5018765;28;20035;-67
2022/03/30 09:58:08;;;;;;;;;;;;;;;;;;5019864;28;19916;-66
2022/03/30 10:00:34;;;;;;;;;;;;;;;;;;5018162;28;19921;-67
2022/03/30 10:03:01;;;;;;;;;;;;;;;;;;5024478;28;19916;-66
2022/03/30 10:05:27;;;;;;;;;;;;;;;;;;5016407;28;20382;-66
2022/03/30 10:07:54;;;;;;;;;;;;;;;;;;5017731;28;19975;-68
2022/03/30 10:10:20;;;;;;;;;;;;;;;;;;5009583;28;19923;-68
2022/03/30 10:12:46;;;;;;;;;;;;;;;;;;5015923;28;19917;-68
2022/03/30 10:15:13;;;;;;;;;;;;;;;;;;5019240;28;19924;-69
2022/03/30 10:17:39;;;;;;;;;;;;;;;;;;5026392;28;19987;-68
2022/03/30 10:20:05;;;;;;;;;;;;;;;;;;5003531;28;20640;-68
2022/03/30 10:22:31;;;;;;;;;;;;;;;;;;5029535;28;20189;-68
2022/03/30 10:24:57;;;;;;;;;;;;;;;;;;5022459;28;19944;-68
2022/03/30 10:27:23;;;;;;;;;;;;;;;;;;5025193;28;20425;-68
2022/03/30 10:29:49;;;;;;;;;;;;;;;;;;5009709;28;19917;-68
2022/03/30 10:32:15;;;;;;;;;;;;;;;;;;5020680;28;19926;-68
2022/03/30 10:34:42;;;;;;;;;;;;;;;;;;5027014;28;19927;-68
2022/03/30 10:37:09;;;;;;;;;;;;;;;;;;5018478;28;19923;-68
2022/03/30 10:39:35;;;;;;;;;;;;;;;;;;5025541;28;19921;-67
2022/03/30 10:42:01;;;;;;;;;;;;;;;;;;5024481;28;19920;-68
2022/03/30 10:44:27;;;;;;;;;;;;;;;;;;5026728;28;19924;-67
2022/03/30 10:46:53;;;;;;;;;;;;;;;;;;5026910;28;19924;-68
2022/03/30 10:49:19;;;;;;;;;;;;;;;;;;5032775;28;20433;-69
2022/03/30 10:51:45;;;;;;;;;;;;;;;;;;5024915;28;19925;-68
2022/03/30 10:54:11;;;;;;;;;;;;;;;;;;5023675;28;20016;-69
2022/03/30 10:56:37;;;;;;;;;;;;;;;;;;5023864;28;20311;-67
2022/03/30 10:59:03;;;;;;;;;;;;;;;;;;5019803;28;19925;-67
2022/03/30 11:01:29;;;;;;;;;;;;;;;;;;5010327;28;19920;-67
2022/03/30 11:03:55;;;;;;;;;;;;;;;;;;5018916;28;19921;-67
2022/03/30 11:06:21;;;;;;;;;;;;;;;;;;5028399;28;19917;-68
2022/03/30 11:08:48;;;;;;;;;;;;;;;;;;5024201;28;19924;-68
2022/03/30 11:11:15;;;;;;;;;;;;;;;;;;5008671;28;19979;-68
2022/03/30 11:13:41;;;;;;;;;;;;;;;;;;5026438;28;20384;-68
2022/03/30 11:16:11;;;;;;;;;;;;;;;;;;5021498;28;20499;-68
2022/03/30 11:18:37;;;;;;;;;;;;;;;;;;5022074;28;19982;-67
2022/03/30 11:21:03;;;;;;;;;;;;;;;;;;5016949;28;20008;-67
2022/03/30 11:23:29;;;;;;;;;;;;;;;;;;5025635;28;20363;-67
2022/03/30 11:25:56;;;;;;;;;;;;;;;;;;5023598;28;20030;-67
2022/03/30 11:28:22;;;;;;;;;;;;;;;;;;5026916;28;19998;-67
2022/03/30 11:30:48;;;;;;;;;;;;;;;;;;5008784;28;20018;-67
2022/03/30 11:33:17;;;;;;;;;;;;;;;;;;5004300;28;19924;-67
2022/03/30 11:35:43;;;;;;;;;;;;;;;;;;5033792;28;19916;-67
2022/03/30 11:38:09;;;;;;;;;;;;;;;;;;5017458;28;19917;-67
2022/03/30 11:40:35;;;;;;;;;;;;;;;;;;5009799;28;20385;-67
2022/03/30 11:43:01;;;;;;;;;;;;;;;;;;5022539;28;19920;-69
2022/03/30 11:45:29;;;;;;;;;;;;;;;;;;5021139;28;19917;-68
2022/03/30 11:47:55;;;;;;;;;;;;;;;;;;5021067;28;20344;-68
2022/03/30 11:50:21;;;;;;;;;;;;;;;;;;5022169;28;19925;-68
2022/03/30 11:52:47;;;;;;;;;;;;;;;;;;5020398;28;19932;-68
2022/03/30 11:55:13;;;;;;;;;;;;;;;;;;5016857;28;19950;-66
2022/03/30 11:57:39;;;;;;;;;;;;;;;;;;5021570;28;20048;-67
2022/03/30 12:00:09;;;;;;;;;;;;;;;;;;5020239;28;19972;-67
2022/03/30 12:02:35;;;;;;;;;;;;;;;;;;5027977;28;19975;-66
2022/03/30 12:05:01;;;;;;;;;;;;;;;;;;5016779;28;19916;-68
2022/03/30 12:07:27;;;;;;;;;;;;;;;;;;5020326;28;19928;-68
2022/03/30 12:10:02;;;;;;;;;;;;;;;;;;5021028;28;19917;-68
2022/03/30 12:12:31;;;;;;;;;;;;;;;;;;5015683;28;19917;-68
2022/03/30 12:14:57;;;;;;;;;;;;;;;;;;5021743;28;20480;-68
2022/03/30 12:17:23;;;;;;;;;;;;;;;;;;5031127;28;19939;-68
2022/03/30 12:19:49;;;;;;;;;;;;;;;;;;5021912;28;20482;-68
2022/03/30 12:22:15;;;;;;;;;;;;;;;;;;5023620;28;19927;-68
2022/03/30 12:24:42;;;;;;;;;;;;;;;;;;5010176;28;19921;-68
2022/03/30 12:27:07;;;;;;;;;;;;;;;;;;5020148;28;19944;-68
2022/03/30 12:29:33;;;;;;;;;;;;;;;;;;5025570;28;20390;-67
2022/03/30 12:31:59;;;;;;;;;;;;;;;;;;5020214;28;20270;-68
2022/03/30 12:34:26;;;;;;;;;;;;;;;;;;5025474;28;19925;-67
2022/03/30 12:36:53;;;;;;;;;;;;;;;;;;5018239;28;19925;-67
2022/03/30 12:39:19;;;;;;;;;;;;;;;;;;5017328;28;19917;-68
2022/03/30 12:41:45;;;;;;;;;;;;;;;;;;5014009;28;19939;-67
2022/03/30 12:44:11;;;;;;;;;;;;;;;;;;5006531;28;20486;-68
2022/03/30 12:46:37;;;;;;;;;;;;;;;;;;5007003;28;19921;-67
2022/03/30 12:49:03;;;;;;;;;;;;;;;;;;5015292;28;20351;-68
2022/03/30 12:51:30;;;;;;;;;;;;;;;;;;5028257;28;19935;-66
2022/03/30 12:53:56;;;;;;;;;;;;;;;;;;5023270;28;20013;-72
2022/03/30 12:56:24;;;;;;;;;;;;;;;;;;5019325;28;20661;-72
2022/03/30 12:58:50;;;;;;;;;;;;;;;;;;5026610;28;20315;-73
2022/03/30 13:01:16;;;;;;;;;;;;;;;;;;5020439;28;20345;-73
2022/03/30 13:03:42;;;;;;;;;;;;;;;;;;4999857;28;19917;-73
2022/03/30 13:06:08;;;;;;;;;;;;;;;;;;5018450;28;20411;-72
2022/03/30 13:08:34;;;;;;;;;;;;;;;;;;5021405;28;19921;-73
2022/03/30 13:11:00;;;;;;;;;;;;;;;;;;5017570;28;20520;-74
2022/03/30 13:13:26;;;;;;;;;;;;;;;;;;5028565;28;19931;-74
2022/03/30 13:15:52;;;;;;;;;;;;;;;;;;5013766;28;20291;-73
2022/03/30 13:18:18;;;;;;;;;;;;;;;;;;5025789;28;20011;-74
2022/03/30 13:20:44;;;;;;;;;;;;;;;;;;5026321;28;19925;-74
2022/03/30 13:23:10;;;;;;;;;;;;;;;;;;5018086;28;19927;-72
2022/03/30 13:25:36;;;;;;;;;;;;;;;;;;5020273;28;20347;-73
2022/03/30 13:28:02;;;;;;;;;;;;;;;;;;4997869;28;20351;-73
2022/03/30 13:30:28;;;;;;;;;;;;;;;;;;5026389;28;19917;-73
2022/03/30 13:32:54;;;;;;;;;;;;;;;;;;5024416;28;19917;-73
2022/03/30 13:35:20;;;;;;;;;;;;;;;;;;5022554;28;19925;-72
2022/03/30 13:37:46;;;;;;;;;;;;;;;;;;5024945;28;19955;-72
2022/03/30 13:40:12;;;;;;;;;;;;;;;;;;5020333;28;20581;-74
2022/03/30 13:42:38;;;;;;;;;;;;;;;;;;5024182;28;19917;-75
2022/03/30 13:45:04;;;;;;;;;;;;;;;;;;5008543;28;19920;-74
2022/03/30 13:47:30;;;;;;;;;;;;;;;;;;5023515;28;19967;-74
2022/03/30 13:49:56;;;;;;;;;;;;;;;;;;5008894;28;19960;-73
2022/03/30 13:52:24;;;;;;;;;;;;;;;;;;5028176;28;20394;-73
2022/03/30 13:54:50;;;;;;;;;;;;;;;;;;5029440;28;20074;-75
2022/03/30 13:57:16;;;;;;;;;;;;;;;;;;5022194;28;19917;-75
2022/03/30 13:59:42;;;;;;;;;;;;;;;;;;5020141;28;19939;-74
2022/03/30 14:02:08;;;;;;;;;;;;;;;;;;5019297;28;20355;-74
2022/03/30 14:04:34;;;;;;;;;;;;;;;;;;5014802;28;19917;-74
2022/03/30 14:06:59;;;;;;;;;;;;;;;;;;5014386;28;19964;-73
2022/03/30 14:09:31;;;;;;;;;;;;;;;;;;5016712;28;19916;-74
2022/03/30 14:11:57;;;;;;;;;;;;;;;;;;5020985;28;19926;-73
2022/03/30 14:14:23;;;;;;;;;;;;;;;;;;5028751;28;19928;-74
2022/03/30 14:16:49;;;;;;;;;;;;;;;;;;5024074;28;19917;-74
2022/03/30 14:19:16;;;;;;;;;;;;;;;;;;5009847;28;20230;-75
2022/03/30 14:21:43;;;;;;;;;;;;;;;;;;5016180;28;19976;-73
2022/03/30 14:24:09;;;;;;;;;;;;;;;;;;5013129;28;19917;-73
2022/03/30 14:26:35;;;;;;;;;;;;;;;;;;5013092;28;19928;-74
2022/03/30 14:29:01;;;;;;;;;;;;;;;;;;5009276;28;19917;-74
2022/03/30 14:31:26;;;;;;;;;;;;;;;;;;5012004;28;20438;-73
2022/03/30 14:33:52;;;;;;;;;;;;;;;;;;5006938;28;19928;-73
2022/03/30 14:36:18;;;;;;;;;;;;;;;;;;5017277;28;20516;-74
2022/03/30 14:38:44;;;;;;;;;;;;;;;;;;5013690;28;20468;-73
2022/03/30 14:41:11;;;;;;;;;;;;;;;;;;5008324;28;20327;-73
2022/03/30 14:43:37;;;;;;;;;;;;;;;;;;5013269;28;20780;-73
2022/03/30 14:46:03;;;;;;;;;;;;;;;;;;5008254;28;19924;-73
2022/03/30 14:48:29;;;;;;;;;;;;;;;;;;4999256;28;20389;-75
2022/03/30 14:50:55;;;;;;;;;;;;;;;;;;5011243;28;19967;-73
2022/03/30 14:53:20;;;;;;;;;;;;;;;;;;5012897;28;20324;-75
2022/03/30 14:55:46;;;;;;;;;;;;;;;;;;5002682;28;20355;-73
2022/03/30 14:58:13;;;;;;;;;;;;;;;;;;5007926;28;20481;-75
2022/03/30 15:00:39;;;;;;;;;;;;;;;;;;5016359;28;20461;-73
2022/03/30 15:03:05;;;;;;;;;;;;;;;;;;5016019;28;20004;-74
2022/03/30 15:05:31;;;;;;;;;;;;;;;;;;5012789;28;20450;-74
2022/03/30 15:07:57;;;;;;;;;;;;;;;;;;5005285;28;20007;-74
2022/03/30 15:10:23;;;;;;;;;;;;;;;;;;5005823;28;20038;-74
2022/03/30 15:12:50;;;;;;;;;;;;;;;;;;5015447;28;19963;-74
2022/03/30 15:15:16;;;;;;;;;;;;;;;;;;5018728;28;20276;-73
2022/03/30 15:17:42;;;;;;;;;;;;;;;;;;5026500;28;19951;-74
2022/03/30 15:20:08;;;;;;;;;;;;;;;;;;5021643;28;20257;-74
2022/03/30 15:22:34;;;;;;;;;;;;;;;;;;5008827;28;20021;-74
2022/03/30 15:25:02;;;;;;;;;;;;;;;;;;5015915;28;19917;-74
2022/03/30 15:27:28;;;;;;;;;;;;;;;;;;5022701;28;19921;-74
2022/03/30 15:29:55;;;;;;;;;;;;;;;;;;5019874;28;19953;-74
2022/03/30 15:32:21;;;;;;;;;;;;;;;;;;5022547;28;20017;-74
2022/03/30 15:34:47;;;;;;;;;;;;;;;;;;5020207;28;19921;-73
2022/03/30 15:37:13;;;;;;;;;;;;;;;;;;5010597;28;19921;-74
2022/03/30 15:39:39;;;;;;;;;;;;;;;;;;5001667;28;20142;-74
2022/03/30 15:42:05;;;;;;;;;;;;;;;;;;5019263;28;19959;-75
2022/03/30 15:44:32;;;;;;;;;;;;;;;;;;5020523;28;20256;-73
2022/03/30 15:46:58;;;;;;;;;;;;;;;;;;5019950;28;19921;-74
2022/03/30 15:49:24;;;;;;;;;;;;;;;;;;5012273;28;20004;-74
2022/03/30 15:51:50;;;;;;;;;;;;;;;;;;5018608;28;19944;-73
2022/03/30 15:54:16;;;;;;;;;;;;;;;;;;5024792;28;19917;-75
2022/03/30 15:56:42;;;;;;;;;;;;;;;;;;5032324;28;19920;-75
2022/03/30 15:59:08;;;;;;;;;;;;;;;;;;5004062;28;20430;-75
2022/03/30 16:01:35;;;;;;;;;;;;;;;;;;5020495;28;19924;-75
2022/03/30 16:04:01;;;;;;;;;;;;;;;;;;5010167;28;19928;-75
2022/03/30 16:06:27;;;;;;;;;;;;;;;;;;5021509;28;19917;-74
2022/03/30 16:09:02;;;;;;;;;;;;;;;;;;5013293;28;20420;-73
2022/03/30 16:14:13;;;;;;;;;;;;;;;;;;5023273;28;19982;-74
2022/03/30 16:16:40;;;;;;;;;;;;;;;;;;5029594;28;20016;-74
2022/03/30 16:19:08;;;;;;;;;;;;;;;;;;5012871;28;20027;-75
2022/03/30 16:21:34;;;;;;;;;;;;;;;;;;5016490;28;20375;-74
2022/03/30 16:24:00;;;;;;;;;;;;;;;;;;5018782;28;19917;-75
2022/03/30 16:26:26;;;;;;;;;;;;;;;;;;5017327;28;19917;-75
2022/03/30 16:28:52;;;;;;;;;;;;;;;;;;5013032;28;20306;-74
2022/03/30 16:31:19;;;;;;;;;;;;;;;;;;5005623;28;19923;-74
2022/03/30 16:33:45;;;;;;;;;;;;;;;;;;5015352;28;19921;-75
2022/03/30 16:36:11;;;;;;;;;;;;;;;;;;5009400;28;20276;-75
2022/03/30 16:38:37;;;;;;;;;;;;;;;;;;5015560;28;19917;-74
2022/03/30 16:41:04;;;;;;;;;;;;;;;;;;4998225;28;20375;-74
2022/03/30 16:43:30;;;;;;;;;;;;;;;;;;5014824;28;20011;-74
2022/03/30 16:45:59;;;;;;;;;;;;;;;;;;5009518;28;20745;-75
2022/03/30 16:48:25;;;;;;;;;;;;;;;;;;5011766;28;20040;-75
2022/03/30 16:50:51;;;;;;;;;;;;;;;;;;5014543;28;20042;-74